sensor_id;sensor_type;location;lat;lon;timestamp;P1;durP1;ratioP1;P2;durP2;ratioP2
72590;SDS011;60625;51.212;5.952;2023-05-10T00:02:44;12.70;;;7.80;;
72590;SDS011;60625;51.212;5.952;2023-05-10T00:07:45;16.20;;;8.50;;
72590;SDS011;60625;51.212;5.952;2023-05-10T00:12:45;12.30;;;7.50;;
72590;SDS011;60625;51.212;5.952;2023-05-10T00:17:45;13.30;;;7.80;;
72590;SDS011;60625;51.212;5.952;2023-05-10T00:22:46;15.60;;;9.10;;
72590;SDS011;60625;51.212;5.952;2023-05-10T00:27:47;14.50;;;8.00;;
72590;SDS011;60625;51.212;5.952;2023-05-10T00:32:47;13.80;;;7.60;;
72590;SDS011;60625;51.212;5.952;2023-05-10T00:37:50;11.30;;;6.80;;
72590;SDS011;60625;51.212;5.952;2023-05-10T00:42:50;12.10;;;6.30;;
72590;SDS011;60625;51.212;5.952;2023-05-10T00:47:51;11.10;;;6.10;;
72590;SDS011;60625;51.212;5.952;2023-05-10T00:52:55;11.90;;;5.60;;
72590;SDS011;60625;51.212;5.952;2023-05-10T00:57:56;10.50;;;5.50;;
72590;SDS011;60625;51.212;5.952;2023-05-10T01:02:57;11.40;;;6.30;;
72590;SDS011;60625;51.212;5.952;2023-05-10T01:07:58;11.90;;;6.50;;
72590;SDS011;60625;51.212;5.952;2023-05-10T01:12:59;12.50;;;7.60;;
72590;SDS011;60625;51.212;5.952;2023-05-10T01:18:01;14.70;;;7.60;;
72590;SDS011;60625;51.212;5.952;2023-05-10T01:34:07;18.70;;;10.00;;
72590;SDS011;60625;51.212;5.952;2023-05-10T01:44:37;20.20;;;11.50;;
72590;SDS011;60625;51.212;5.952;2023-05-10T01:49:45;21.20;;;12.10;;
72590;SDS011;60625;51.212;5.952;2023-05-10T01:54:57;23.40;;;11.80;;
72590;SDS011;60625;51.212;5.952;2023-05-10T02:00:04;24.70;;;12.70;;
72590;SDS011;60625;51.212;5.952;2023-05-10T02:05:16;22.00;;;11.80;;
72590;SDS011;60625;51.212;5.952;2023-05-10T02:10:18;21.60;;;12.20;;
72590;SDS011;60625;51.212;5.952;2023-05-10T02:15:23;23.60;;;12.80;;
72590;SDS011;60625;51.212;5.952;2023-05-10T02:20:25;24.10;;;12.60;;
72590;SDS011;60625;51.212;5.952;2023-05-10T02:25:26;27.20;;;13.60;;
72590;SDS011;60625;51.212;5.952;2023-05-10T02:30:28;29.20;;;14.70;;
72590;SDS011;60625;51.212;5.952;2023-05-10T02:35:32;27.90;;;14.40;;
72590;SDS011;60625;51.212;5.952;2023-05-10T02:40:34;27.20;;;13.20;;
72590;SDS011;60625;51.212;5.952;2023-05-10T02:45:36;26.80;;;14.10;;
72590;SDS011;60625;51.212;5.952;2023-05-10T02:50:41;26.10;;;14.00;;
72590;SDS011;60625;51.212;5.952;2023-05-10T02:55:49;25.60;;;14.30;;
72590;SDS011;60625;51.212;5.952;2023-05-10T03:00:51;31.10;;;16.00;;
72590;SDS011;60625;51.212;5.952;2023-05-10T03:05:52;30.10;;;16.10;;
72590;SDS011;60625;51.212;5.952;2023-05-10T03:11:09;31.10;;;15.10;;
72590;SDS011;60625;51.212;5.952;2023-05-10T03:16:25;26.90;;;14.00;;
72590;SDS011;60625;51.212;5.952;2023-05-10T03:21:29;24.40;;;13.20;;
72590;SDS011;60625;51.212;5.952;2023-05-10T03:26:31;22.40;;;12.30;;
72590;SDS011;60625;51.212;5.952;2023-05-10T03:31:43;23.80;;;12.40;;
72590;SDS011;60625;51.212;5.952;2023-05-10T03:36:43;23.80;;;12.30;;
72590;SDS011;60625;51.212;5.952;2023-05-10T03:41:44;22.40;;;11.20;;
72590;SDS011;60625;51.212;5.952;2023-05-10T03:46:45;22.80;;;11.90;;
72590;SDS011;60625;51.212;5.952;2023-05-10T03:51:46;21.60;;;11.90;;
72590;SDS011;60625;51.212;5.952;2023-05-10T03:56:47;23.40;;;12.10;;
72590;SDS011;60625;51.212;5.952;2023-05-10T04:01:49;24.60;;;12.00;;
72590;SDS011;60625;51.212;5.952;2023-05-10T04:06:49;25.20;;;13.10;;
72590;SDS011;60625;51.212;5.952;2023-05-10T04:11:50;31.10;;;13.10;;
72590;SDS011;60625;51.212;5.952;2023-05-10T04:16:51;29.90;;;13.30;;
72590;SDS011;60625;51.212;5.952;2023-05-10T04:21:51;28.80;;;12.80;;
72590;SDS011;60625;51.212;5.952;2023-05-10T04:26:52;29.40;;;14.20;;
72590;SDS011;60625;51.212;5.952;2023-05-10T04:31:54;29.80;;;13.50;;
72590;SDS011;60625;51.212;5.952;2023-05-10T04:36:55;26.70;;;13.00;;
72590;SDS011;60625;51.212;5.952;2023-05-10T04:41:56;30.50;;;13.20;;
72590;SDS011;60625;51.212;5.952;2023-05-10T04:46:56;27.20;;;13.60;;
72590;SDS011;60625;51.212;5.952;2023-05-10T04:51:57;35.40;;;14.50;;
72590;SDS011;60625;51.212;5.952;2023-05-10T04:56:57;36.40;;;14.60;;
72590;SDS011;60625;51.212;5.952;2023-05-10T05:01:58;35.30;;;16.30;;
72590;SDS011;60625;51.212;5.952;2023-05-10T05:06:58;37.30;;;14.70;;
72590;SDS011;60625;51.212;5.952;2023-05-10T05:11:59;36.20;;;13.90;;
72590;SDS011;60625;51.212;5.952;2023-05-10T05:17:00;30.20;;;14.60;;
72590;SDS011;60625;51.212;5.952;2023-05-10T05:22:01;34.50;;;14.50;;
72590;SDS011;60625;51.212;5.952;2023-05-10T05:27:01;30.90;;;14.10;;
72590;SDS011;60625;51.212;5.952;2023-05-10T05:32:02;33.50;;;14.30;;
72590;SDS011;60625;51.212;5.952;2023-05-10T05:37:03;31.20;;;15.10;;
72590;SDS011;60625;51.212;5.952;2023-05-10T05:42:03;38.40;;;15.20;;
72590;SDS011;60625;51.212;5.952;2023-05-10T05:47:05;34.90;;;15.60;;
72590;SDS011;60625;51.212;5.952;2023-05-10T05:52:06;31.00;;;14.90;;
72590;SDS011;60625;51.212;5.952;2023-05-10T05:57:06;35.50;;;16.40;;
72590;SDS011;60625;51.212;5.952;2023-05-10T06:02:08;33.50;;;15.30;;
72590;SDS011;60625;51.212;5.952;2023-05-10T06:07:09;32.00;;;15.30;;
72590;SDS011;60625;51.212;5.952;2023-05-10T06:12:10;32.60;;;16.70;;
72590;SDS011;60625;51.212;5.952;2023-05-10T06:17:11;31.40;;;14.20;;
72590;SDS011;60625;51.212;5.952;2023-05-10T06:22:12;35.30;;;15.70;;
72590;SDS011;60625;51.212;5.952;2023-05-10T06:27:12;44.10;;;19.50;;
72590;SDS011;60625;51.212;5.952;2023-05-10T06:32:13;36.20;;;16.50;;
72590;SDS011;60625;51.212;5.952;2023-05-10T06:37:13;39.60;;;17.90;;
72590;SDS011;60625;51.212;5.952;2023-05-10T06:42:14;35.40;;;15.60;;
72590;SDS011;60625;51.212;5.952;2023-05-10T06:47:14;44.00;;;17.20;;
72590;SDS011;60625;51.212;5.952;2023-05-10T06:52:14;34.40;;;16.10;;
72590;SDS011;60625;51.212;5.952;2023-05-10T06:57:15;30.90;;;14.70;;
72590;SDS011;60625;51.212;5.952;2023-05-10T07:02:15;27.10;;;13.30;;
72590;SDS011;60625;51.212;5.952;2023-05-10T07:07:17;30.60;;;13.80;;
72590;SDS011;60625;51.212;5.952;2023-05-10T07:12:17;27.30;;;13.40;;
72590;SDS011;60625;51.212;5.952;2023-05-10T07:17:18;23.10;;;12.70;;
72590;SDS011;60625;51.212;5.952;2023-05-10T07:22:18;28.10;;;12.90;;
72590;SDS011;60625;51.212;5.952;2023-05-10T07:27:19;23.90;;;12.40;;
72590;SDS011;60625;51.212;5.952;2023-05-10T07:32:20;32.30;;;15.40;;
72590;SDS011;60625;51.212;5.952;2023-05-10T07:37:21;26.80;;;12.90;;
72590;SDS011;60625;51.212;5.952;2023-05-10T07:42:22;25.70;;;12.70;;
72590;SDS011;60625;51.212;5.952;2023-05-10T07:47:23;25.90;;;12.70;;
72590;SDS011;60625;51.212;5.952;2023-05-10T07:52:23;24.80;;;11.90;;
72590;SDS011;60625;51.212;5.952;2023-05-10T07:57:24;22.60;;;12.60;;
72590;SDS011;60625;51.212;5.952;2023-05-10T08:02:25;24.00;;;12.80;;
72590;SDS011;60625;51.212;5.952;2023-05-10T08:07:25;27.00;;;14.70;;
72590;SDS011;60625;51.212;5.952;2023-05-10T08:12:26;28.90;;;15.60;;
72590;SDS011;60625;51.212;5.952;2023-05-10T08:17:26;34.00;;;15.90;;
72590;SDS011;60625;51.212;5.952;2023-05-10T08:22:27;32.70;;;15.10;;
72590;SDS011;60625;51.212;5.952;2023-05-10T08:27:27;32.20;;;15.70;;
72590;SDS011;60625;51.212;5.952;2023-05-10T08:32:28;31.50;;;15.30;;
72590;SDS011;60625;51.212;5.952;2023-05-10T08:37:29;29.50;;;15.00;;
72590;SDS011;60625;51.212;5.952;2023-05-10T08:42:34;28.70;;;13.60;;
72590;SDS011;60625;51.212;5.952;2023-05-10T08:47:38;26.30;;;12.40;;
72590;SDS011;60625;51.212;5.952;2023-05-10T08:52:40;28.90;;;13.60;;
72590;SDS011;60625;51.212;5.952;2023-05-10T08:57:41;24.60;;;13.40;;
72590;SDS011;60625;51.212;5.952;2023-05-10T09:02:42;23.10;;;11.90;;
72590;SDS011;60625;51.212;5.952;2023-05-10T09:07:43;24.80;;;12.20;;
72590;SDS011;60625;51.212;5.952;2023-05-10T09:12:45;26.90;;;14.10;;
72590;SDS011;60625;51.212;5.952;2023-05-10T09:17:46;26.60;;;14.60;;
72590;SDS011;60625;51.212;5.952;2023-05-10T09:22:47;22.80;;;13.50;;
72590;SDS011;60625;51.212;5.952;2023-05-10T09:27:48;23.20;;;12.90;;
72590;SDS011;60625;51.212;5.952;2023-05-10T09:32:51;21.20;;;12.30;;
72590;SDS011;60625;51.212;5.952;2023-05-10T09:37:54;22.40;;;12.60;;
72590;SDS011;60625;51.212;5.952;2023-05-10T09:47:59;24.30;;;13.20;;
72590;SDS011;60625;51.212;5.952;2023-05-10T09:53:03;24.50;;;13.10;;
72590;SDS011;60625;51.212;5.952;2023-05-10T09:58:04;26.50;;;14.60;;
72590;SDS011;60625;51.212;5.952;2023-05-10T10:03:13;28.20;;;13.40;;
72590;SDS011;60625;51.212;5.952;2023-05-10T10:08:17;33.30;;;16.70;;
72590;SDS011;60625;51.212;5.952;2023-05-10T10:13:18;27.40;;;15.20;;
72590;SDS011;60625;51.212;5.952;2023-05-10T10:18:19;29.40;;;16.50;;
72590;SDS011;60625;51.212;5.952;2023-05-10T10:23:23;27.90;;;16.10;;
72590;SDS011;60625;51.212;5.952;2023-05-10T10:28:39;27.30;;;15.60;;
72590;SDS011;60625;51.212;5.952;2023-05-10T10:34:21;30.00;;;15.80;;
72590;SDS011;60625;51.212;5.952;2023-05-10T10:39:27;27.10;;;14.20;;
72590;SDS011;60625;51.212;5.952;2023-05-10T10:49:38;25.00;;;14.30;;
72590;SDS011;60625;51.212;5.952;2023-05-10T10:54:50;26.90;;;15.30;;
72590;SDS011;60625;51.212;5.952;2023-05-10T10:59:53;24.30;;;13.70;;
72590;SDS011;60625;51.212;5.952;2023-05-10T11:10:36;22.80;;;13.20;;
72590;SDS011;60625;51.212;5.952;2023-05-10T11:15:39;26.90;;;15.00;;
72590;SDS011;60625;51.212;5.952;2023-05-10T11:20:40;24.30;;;13.90;;
72590;SDS011;60625;51.212;5.952;2023-05-10T11:25:41;25.30;;;14.60;;
72590;SDS011;60625;51.212;5.952;2023-05-10T11:30:44;20.30;;;12.00;;
72590;SDS011;60625;51.212;5.952;2023-05-10T11:35:46;20.00;;;12.50;;
72590;SDS011;60625;51.212;5.952;2023-05-10T11:40:51;22.50;;;12.80;;
72590;SDS011;60625;51.212;5.952;2023-05-10T11:45:54;18.80;;;11.60;;
72590;SDS011;60625;51.212;5.952;2023-05-10T11:50:55;17.20;;;10.40;;
72590;SDS011;60625;51.212;5.952;2023-05-10T11:56:08;16.50;;;10.90;;
72590;SDS011;60625;51.212;5.952;2023-05-10T12:01:10;14.50;;;9.50;;
72590;SDS011;60625;51.212;5.952;2023-05-10T12:06:11;18.80;;;10.70;;
72590;SDS011;60625;51.212;5.952;2023-05-10T12:11:12;16.20;;;9.60;;
72590;SDS011;60625;51.212;5.952;2023-05-10T12:16:20;15.20;;;9.70;;
72590;SDS011;60625;51.212;5.952;2023-05-10T12:21:21;14.30;;;9.00;;
72590;SDS011;60625;51.212;5.952;2023-05-10T12:26:25;15.50;;;11.00;;
72590;SDS011;60625;51.212;5.952;2023-05-10T12:31:26;15.60;;;11.00;;
72590;SDS011;60625;51.212;5.952;2023-05-10T12:36:27;17.90;;;11.10;;
72590;SDS011;60625;51.212;5.952;2023-05-10T12:41:27;14.20;;;8.90;;
72590;SDS011;60625;51.212;5.952;2023-05-10T12:46:28;14.80;;;9.10;;
72590;SDS011;60625;51.212;5.952;2023-05-10T12:51:29;14.20;;;9.10;;
72590;SDS011;60625;51.212;5.952;2023-05-10T12:56:30;17.40;;;10.30;;
72590;SDS011;60625;51.212;5.952;2023-05-10T13:01:32;15.60;;;10.00;;
72590;SDS011;60625;51.212;5.952;2023-05-10T13:06:32;14.50;;;8.80;;
72590;SDS011;60625;51.212;5.952;2023-05-10T13:11:33;14.40;;;8.50;;
72590;SDS011;60625;51.212;5.952;2023-05-10T13:16:34;16.80;;;10.10;;
72590;SDS011;60625;51.212;5.952;2023-05-10T13:21:34;15.60;;;9.90;;
72590;SDS011;60625;51.212;5.952;2023-05-10T13:26:35;14.70;;;8.90;;
72590;SDS011;60625;51.212;5.952;2023-05-10T13:31:36;14.20;;;9.10;;
72590;SDS011;60625;51.212;5.952;2023-05-10T13:36:36;16.10;;;8.90;;
72590;SDS011;60625;51.212;5.952;2023-05-10T13:41:37;13.40;;;7.70;;
72590;SDS011;60625;51.212;5.952;2023-05-10T13:46:38;12.80;;;8.20;;
72590;SDS011;60625;51.212;5.952;2023-05-10T13:51:38;13.10;;;8.60;;
72590;SDS011;60625;51.212;5.952;2023-05-10T13:56:39;10.80;;;7.20;;
72590;SDS011;60625;51.212;5.952;2023-05-10T14:01:42;13.80;;;7.70;;
72590;SDS011;60625;51.212;5.952;2023-05-10T14:06:43;13.30;;;7.50;;
72590;SDS011;60625;51.212;5.952;2023-05-10T14:11:44;11.50;;;7.40;;
72590;SDS011;60625;51.212;5.952;2023-05-10T14:16:46;12.30;;;6.90;;
72590;SDS011;60625;51.212;5.952;2023-05-10T14:21:46;12.80;;;7.20;;
72590;SDS011;60625;51.212;5.952;2023-05-10T14:26:46;13.20;;;6.90;;
72590;SDS011;60625;51.212;5.952;2023-05-10T14:31:47;10.30;;;6.00;;
72590;SDS011;60625;51.212;5.952;2023-05-10T14:36:48;14.20;;;6.50;;
72590;SDS011;60625;51.212;5.952;2023-05-10T14:41:48;11.20;;;6.40;;
72590;SDS011;60625;51.212;5.952;2023-05-10T14:46:49;9.70;;;5.90;;
72590;SDS011;60625;51.212;5.952;2023-05-10T14:51:49;9.20;;;5.60;;
72590;SDS011;60625;51.212;5.952;2023-05-10T14:56:50;12.80;;;5.40;;
72590;SDS011;60625;51.212;5.952;2023-05-10T15:01:50;11.30;;;6.20;;
72590;SDS011;60625;51.212;5.952;2023-05-10T15:06:51;10.60;;;5.50;;
72590;SDS011;60625;51.212;5.952;2023-05-10T15:11:52;12.20;;;5.00;;
72590;SDS011;60625;51.212;5.952;2023-05-10T15:16:53;9.70;;;5.10;;
72590;SDS011;60625;51.212;5.952;2023-05-10T15:21:53;8.90;;;4.90;;
72590;SDS011;60625;51.212;5.952;2023-05-10T15:26:54;8.20;;;5.00;;
72590;SDS011;60625;51.212;5.952;2023-05-10T15:31:55;8.30;;;4.60;;
72590;SDS011;60625;51.212;5.952;2023-05-10T15:36:56;10.70;;;6.00;;
72590;SDS011;60625;51.212;5.952;2023-05-10T15:41:56;14.20;;;7.90;;
72590;SDS011;60625;51.212;5.952;2023-05-10T15:46:57;12.10;;;7.10;;
72590;SDS011;60625;51.212;5.952;2023-05-10T15:51:58;10.70;;;5.90;;
72590;SDS011;60625;51.212;5.952;2023-05-10T15:56:58;8.00;;;4.90;;
72590;SDS011;60625;51.212;5.952;2023-05-10T16:01:59;6.60;;;3.60;;
72590;SDS011;60625;51.212;5.952;2023-05-10T16:06:59;6.90;;;3.90;;
72590;SDS011;60625;51.212;5.952;2023-05-10T16:12:00;6.90;;;2.90;;
72590;SDS011;60625;51.212;5.952;2023-05-10T16:17:02;6.60;;;3.60;;
72590;SDS011;60625;51.212;5.952;2023-05-10T16:22:03;7.20;;;3.90;;
72590;SDS011;60625;51.212;5.952;2023-05-10T16:27:04;5.40;;;2.60;;
72590;SDS011;60625;51.212;5.952;2023-05-10T16:32:04;4.50;;;2.00;;
72590;SDS011;60625;51.212;5.952;2023-05-10T16:37:05;5.00;;;2.80;;
72590;SDS011;60625;51.212;5.952;2023-05-10T16:42:05;5.20;;;2.20;;
72590;SDS011;60625;51.212;5.952;2023-05-10T16:47:06;4.30;;;2.20;;
72590;SDS011;60625;51.212;5.952;2023-05-10T16:52:07;4.80;;;2.10;;
72590;SDS011;60625;51.212;5.952;2023-05-10T16:57:08;5.40;;;1.90;;
72590;SDS011;60625;51.212;5.952;2023-05-10T17:02:08;4.70;;;2.40;;
72590;SDS011;60625;51.212;5.952;2023-05-10T17:07:08;5.90;;;2.60;;
72590;SDS011;60625;51.212;5.952;2023-05-10T17:12:09;4.80;;;2.40;;
72590;SDS011;60625;51.212;5.952;2023-05-10T17:17:10;5.80;;;2.70;;
72590;SDS011;60625;51.212;5.952;2023-05-10T17:22:11;6.10;;;3.00;;
72590;SDS011;60625;51.212;5.952;2023-05-10T17:27:12;7.80;;;3.80;;
72590;SDS011;60625;51.212;5.952;2023-05-10T17:32:13;9.30;;;3.30;;
72590;SDS011;60625;51.212;5.952;2023-05-10T17:37:13;6.80;;;3.70;;
72590;SDS011;60625;51.212;5.952;2023-05-10T17:42:14;6.00;;;3.50;;
72590;SDS011;60625;51.212;5.952;2023-05-10T17:47:17;5.40;;;3.30;;
72590;SDS011;60625;51.212;5.952;2023-05-10T17:52:17;6.90;;;4.10;;
72590;SDS011;60625;51.212;5.952;2023-05-10T17:57:18;7.00;;;4.30;;
72590;SDS011;60625;51.212;5.952;2023-05-10T18:02:19;6.50;;;3.70;;
72590;SDS011;60625;51.212;5.952;2023-05-10T18:07:20;6.10;;;3.30;;
72590;SDS011;60625;51.212;5.952;2023-05-10T18:12:23;5.80;;;3.50;;
72590;SDS011;60625;51.212;5.952;2023-05-10T18:17:24;5.70;;;3.40;;
72590;SDS011;60625;51.212;5.952;2023-05-10T18:22:25;6.70;;;3.30;;
72590;SDS011;60625;51.212;5.952;2023-05-10T18:27:26;5.40;;;3.50;;
72590;SDS011;60625;51.212;5.952;2023-05-10T18:32:27;6.70;;;3.70;;
72590;SDS011;60625;51.212;5.952;2023-05-10T18:37:28;5.50;;;3.00;;
72590;SDS011;60625;51.212;5.952;2023-05-10T18:42:29;5.40;;;3.10;;
72590;SDS011;60625;51.212;5.952;2023-05-10T18:47:30;6.50;;;3.10;;
72590;SDS011;60625;51.212;5.952;2023-05-10T18:52:30;5.80;;;3.00;;
72590;SDS011;60625;51.212;5.952;2023-05-10T18:57:31;5.50;;;3.20;;
72590;SDS011;60625;51.212;5.952;2023-05-10T19:02:31;6.80;;;3.20;;
72590;SDS011;60625;51.212;5.952;2023-05-10T19:07:32;5.10;;;3.10;;
72590;SDS011;60625;51.212;5.952;2023-05-10T19:12:33;7.20;;;3.30;;
72590;SDS011;60625;51.212;5.952;2023-05-10T19:17:33;6.00;;;3.60;;
72590;SDS011;60625;51.212;5.952;2023-05-10T19:22:35;6.80;;;4.10;;
72590;SDS011;60625;51.212;5.952;2023-05-10T19:27:36;7.40;;;4.50;;
72590;SDS011;60625;51.212;5.952;2023-05-10T19:32:36;9.50;;;4.90;;
72590;SDS011;60625;51.212;5.952;2023-05-10T19:37:37;7.10;;;4.30;;
72590;SDS011;60625;51.212;5.952;2023-05-10T19:42:37;12.30;;;4.70;;
72590;SDS011;60625;51.212;5.952;2023-05-10T19:47:38;7.80;;;4.80;;
72590;SDS011;60625;51.212;5.952;2023-05-10T19:52:39;8.00;;;4.80;;
72590;SDS011;60625;51.212;5.952;2023-05-10T19:57:39;8.50;;;5.20;;
72590;SDS011;60625;51.212;5.952;2023-05-10T20:02:40;9.30;;;5.20;;
72590;SDS011;60625;51.212;5.952;2023-05-10T20:07:40;8.30;;;5.10;;
72590;SDS011;60625;51.212;5.952;2023-05-10T20:12:41;9.40;;;4.60;;
72590;SDS011;60625;51.212;5.952;2023-05-10T20:17:50;7.70;;;3.90;;
72590;SDS011;60625;51.212;5.952;2023-05-10T20:22:52;8.30;;;4.00;;
72590;SDS011;60625;51.212;5.952;2023-05-10T20:27:52;8.80;;;4.70;;
72590;SDS011;60625;51.212;5.952;2023-05-10T20:32:53;8.10;;;4.70;;
72590;SDS011;60625;51.212;5.952;2023-05-10T20:37:54;8.40;;;4.90;;
72590;SDS011;60625;51.212;5.952;2023-05-10T20:42:54;7.10;;;4.60;;
72590;SDS011;60625;51.212;5.952;2023-05-10T20:47:55;8.30;;;5.10;;
72590;SDS011;60625;51.212;5.952;2023-05-10T20:52:56;9.30;;;5.50;;
72590;SDS011;60625;51.212;5.952;2023-05-10T20:57:57;8.90;;;5.30;;
72590;SDS011;60625;51.212;5.952;2023-05-10T21:02:58;10.50;;;6.20;;
72590;SDS011;60625;51.212;5.952;2023-05-10T21:07:58;9.20;;;5.90;;
72590;SDS011;60625;51.212;5.952;2023-05-10T21:12:59;10.70;;;6.50;;
72590;SDS011;60625;51.212;5.952;2023-05-10T21:17:59;9.90;;;6.00;;
72590;SDS011;60625;51.212;5.952;2023-05-10T21:23:00;11.10;;;7.20;;
72590;SDS011;60625;51.212;5.952;2023-05-10T21:28:01;10.70;;;6.80;;
72590;SDS011;60625;51.212;5.952;2023-05-10T21:33:01;13.50;;;7.40;;
72590;SDS011;60625;51.212;5.952;2023-05-10T21:38:02;12.20;;;7.00;;
72590;SDS011;60625;51.212;5.952;2023-05-10T21:43:03;11.20;;;7.80;;
72590;SDS011;60625;51.212;5.952;2023-05-10T21:48:03;11.60;;;7.40;;
72590;SDS011;60625;51.212;5.952;2023-05-10T21:53:04;14.20;;;8.40;;
72590;SDS011;60625;51.212;5.952;2023-05-10T21:58:05;12.00;;;7.60;;
72590;SDS011;60625;51.212;5.952;2023-05-10T22:03:05;10.50;;;11.30;;
72590;SDS011;60625;51.212;5.952;2023-05-10T22:08:06;12.90;;;7.80;;
72590;SDS011;60625;51.212;5.952;2023-05-10T22:13:07;14.80;;;9.50;;
72590;SDS011;60625;51.212;5.952;2023-05-10T22:18:07;14.80;;;9.30;;
72590;SDS011;60625;51.212;5.952;2023-05-10T22:23:08;13.00;;;8.40;;
72590;SDS011;60625;51.212;5.952;2023-05-10T22:28:09;14.10;;;9.60;;
72590;SDS011;60625;51.212;5.952;2023-05-10T22:33:09;15.70;;;9.40;;
72590;SDS011;60625;51.212;5.952;2023-05-10T22:38:10;18.10;;;9.40;;
72590;SDS011;60625;51.212;5.952;2023-05-10T22:43:10;15.50;;;9.60;;
72590;SDS011;60625;51.212;5.952;2023-05-10T22:48:11;15.70;;;9.40;;
72590;SDS011;60625;51.212;5.952;2023-05-10T22:53:14;15.30;;;10.00;;
72590;SDS011;60625;51.212;5.952;2023-05-10T22:58:15;13.30;;;8.50;;
72590;SDS011;60625;51.212;5.952;2023-05-10T23:03:16;14.10;;;8.60;;
72590;SDS011;60625;51.212;5.952;2023-05-10T23:08:17;14.70;;;8.70;;
72590;SDS011;60625;51.212;5.952;2023-05-10T23:13:17;13.60;;;8.10;;
72590;SDS011;60625;51.212;5.952;2023-05-10T23:18:20;13.20;;;8.10;;
72590;SDS011;60625;51.212;5.952;2023-05-10T23:23:20;13.50;;;8.20;;
72590;SDS011;60625;51.212;5.952;2023-05-10T23:28:21;14.60;;;8.80;;
72590;SDS011;60625;51.212;5.952;2023-05-10T23:33:22;14.90;;;8.40;;
72590;SDS011;60625;51.212;5.952;2023-05-10T23:38:24;13.70;;;8.00;;
72590;SDS011;60625;51.212;5.952;2023-05-10T23:43:24;17.20;;;10.20;;
72590;SDS011;60625;51.212;5.952;2023-05-10T23:48:25;13.40;;;8.40;;
72590;SDS011;60625;51.212;5.952;2023-05-10T23:53:25;18.50;;;9.50;;
72590;SDS011;60625;51.212;5.952;2023-05-10T23:58:26;16.90;;;9.70;;
